CEB479 RPLL-RPVB
Flight info
| Callsign | CEB479 |
|---|---|
| Flight time | 0h 51m |
| Altitude | 33000 |
| Route | VERDE2V VERDE A461 SAJ W3 BEDER BEDER3P |
| Aircraft | A20N/M-SDE2E3FGHIRWXY/LB1 |
Departure
| Time | 2026-04-21 11:38 |
|---|---|
| Airport | Ninoy Aquino International Airport (RPLL) |
Arrival
| Time | 2026-04-21 12:29 |
|---|---|
| Airport | Bacolod-Silay International Airport (RPVB) |
| Time | Latitude | Longitude | Altitude | Speed | Heading |
|---|---|---|---|---|---|
| 2026-04-21 11:05 | 14.52532 | 121.00169 | 84 ft | 0 kts | 224° |
| 2026-04-21 11:26 | 14.52539 | 121.00178 | 84 ft | 2 kts | 233° |
| 2026-04-21 11:26 | 14.52546 | 121.00191 | 84 ft | 2 kts | 257° |
| 2026-04-21 11:26 | 14.52547 | 121.00208 | 84 ft | 2 kts | 280° |
| 2026-04-21 11:26 | 14.52542 | 121.00222 | 84 ft | 2 kts | 302° |
| 2026-04-21 11:27 | 14.52534 | 121.00235 | 84 ft | 2 kts | 278° |
| 2026-04-21 11:27 | 14.52535 | 121.00250 | 84 ft | 2 kts | 264° |
| 2026-04-21 11:27 | 14.52536 | 121.00266 | 84 ft | 2 kts | 268° |
| 2026-04-21 11:27 | 14.52537 | 121.00281 | 84 ft | 2 kts | 266° |
| 2026-04-21 11:28 | 14.52537 | 121.00296 | 84 ft | 2 kts | 267° |
| 2026-04-21 11:28 | 14.52538 | 121.00312 | 84 ft | 2 kts | 267° |
| 2026-04-21 11:28 | 14.52539 | 121.00327 | 84 ft | 2 kts | 267° |
| 2026-04-21 11:28 | 14.52539 | 121.00331 | 84 ft | 0 kts | 267° |
| 2026-04-21 11:32 | 14.52539 | 121.00328 | 84 ft | 1 kts | 267° |
| 2026-04-21 11:32 | 14.52537 | 121.00298 | 83 ft | 4 kts | 267° |
| 2026-04-21 11:32 | 14.52535 | 121.00262 | 84 ft | 3 kts | 261° |
| 2026-04-21 11:32 | 14.52515 | 121.00255 | 84 ft | 4 kts | 165° |
| 2026-04-21 11:33 | 14.52490 | 121.00274 | 84 ft | 4 kts | 136° |
| 2026-04-21 11:33 | 14.52464 | 121.00300 | 83 ft | 5 kts | 135° |
| 2026-04-21 11:33 | 14.52434 | 121.00331 | 84 ft | 6 kts | 134° |
| 2026-04-21 11:33 | 14.52403 | 121.00364 | 83 ft | 7 kts | 134° |
| 2026-04-21 11:34 | 14.52367 | 121.00401 | 83 ft | 7 kts | 135° |
| 2026-04-21 11:34 | 14.52327 | 121.00442 | 84 ft | 8 kts | 135° |
| 2026-04-21 11:34 | 14.52308 | 121.00462 | 83 ft | 3 kts | 134° |
| 2026-04-21 11:34 | 14.52306 | 121.00465 | 83 ft | 0 kts | 135° |
| 2026-04-21 11:37 | 14.52287 | 121.00485 | 84 ft | 23 kts | 134° |
| 2026-04-21 11:37 | 14.52226 | 121.00549 | 84 ft | 50 kts | 135° |
| 2026-04-21 11:37 | 14.52123 | 121.00655 | 84 ft | 75 kts | 135° |
| 2026-04-21 11:38 | 14.49579 | 121.03306 | 1578 ft | 158 kts | 135° |
| 2026-04-21 11:38 | 14.48797 | 121.04120 | 2097 ft | 163 kts | 135° |
| 2026-04-21 11:38 | 14.47968 | 121.04977 | 2391 ft | 180 kts | 136° |
| 2026-04-21 11:38 | 14.47379 | 121.05589 | 2611 ft | 191 kts | 136° |
| 2026-04-21 11:39 | 14.47093 | 121.05884 | 2716 ft | 196 kts | 136° |
| 2026-04-21 11:39 | 14.42041 | 121.09445 | 4196 ft | 263 kts | 184° |
| 2026-04-21 11:40 | 14.40257 | 121.09290 | 4985 ft | 265 kts | 185° |
| 2026-04-21 11:40 | 14.38428 | 121.09143 | 5768 ft | 267 kts | 185° |
| 2026-04-21 11:40 | 14.36569 | 121.09008 | 6540 ft | 270 kts | 185° |
| 2026-04-21 11:40 | 14.34689 | 121.08878 | 7289 ft | 274 kts | 186° |
| 2026-04-21 11:41 | 14.32758 | 121.08745 | 8020 ft | 279 kts | 186° |
| 2026-04-21 11:41 | 14.30821 | 121.08611 | 8763 ft | 283 kts | 186° |
| 2026-04-21 11:41 | 14.28859 | 121.08476 | 9455 ft | 287 kts | 186° |
| 2026-04-21 11:41 | 14.26840 | 121.08337 | 10145 ft | 292 kts | 186° |
| 2026-04-21 11:42 | 14.24768 | 121.08195 | 10621 ft | 305 kts | 186° |
| 2026-04-21 11:42 | 14.22595 | 121.08043 | 10932 ft | 322 kts | 186° |
| 2026-04-21 11:42 | 14.20291 | 121.07883 | 11238 ft | 339 kts | 186° |
| 2026-04-21 11:42 | 14.17900 | 121.07719 | 11692 ft | 350 kts | 186° |
| 2026-04-21 11:43 | 14.15471 | 121.07555 | 12326 ft | 355 kts | 186° |
| 2026-04-21 11:43 | 14.12968 | 121.07386 | 12979 ft | 359 kts | 186° |
| 2026-04-21 11:43 | 14.10501 | 121.07220 | 13605 ft | 363 kts | 186° |
| 2026-04-21 11:43 | 14.07945 | 121.07047 | 14242 ft | 367 kts | 185° |
| 2026-04-21 11:44 | 14.05352 | 121.06873 | 14874 ft | 371 kts | 185° |
| 2026-04-21 11:44 | 14.02761 | 121.06698 | 15491 ft | 375 kts | 185° |
| 2026-04-21 11:44 | 14.00175 | 121.06524 | 16093 ft | 379 kts | 185° |
| 2026-04-21 11:44 | 13.97510 | 121.06345 | 16699 ft | 382 kts | 185° |
| 2026-04-21 11:45 | 13.94826 | 121.06165 | 17295 ft | 386 kts | 185° |
| 2026-04-21 11:45 | 13.92150 | 121.05984 | 17877 ft | 389 kts | 184° |
| 2026-04-21 11:45 | 13.89481 | 121.05805 | 18445 ft | 393 kts | 184° |
| 2026-04-21 11:45 | 13.86825 | 121.05627 | 18994 ft | 396 kts | 184° |
| 2026-04-21 11:46 | 13.84080 | 121.05442 | 19550 ft | 399 kts | 184° |
| 2026-04-21 11:46 | 13.81191 | 121.05248 | 20128 ft | 402 kts | 184° |
| 2026-04-21 11:46 | 13.78406 | 121.05061 | 20680 ft | 405 kts | 184° |
| 2026-04-21 11:46 | 13.75751 | 121.04883 | 21193 ft | 407 kts | 184° |
| 2026-04-21 11:47 | 13.72762 | 121.04683 | 21752 ft | 411 kts | 184° |
| 2026-04-21 11:47 | 13.69997 | 121.04497 | 22261 ft | 413 kts | 184° |
| 2026-04-21 11:47 | 13.67083 | 121.04303 | 22792 ft | 416 kts | 183° |
| 2026-04-21 11:47 | 13.64203 | 121.04110 | 23300 ft | 419 kts | 183° |
| 2026-04-21 11:48 | 13.61416 | 121.03924 | 23780 ft | 421 kts | 183° |
| 2026-04-21 11:48 | 13.59256 | 121.03780 | 24143 ft | 423 kts | 183° |
| 2026-04-21 11:48 | 13.55706 | 121.03542 | 24723 ft | 426 kts | 183° |
| 2026-04-21 11:48 | 13.52717 | 121.03342 | 25188 ft | 429 kts | 183° |
| 2026-04-21 11:49 | 13.49735 | 121.03205 | 25633 ft | 431 kts | 180° |
| 2026-04-21 11:49 | 13.46715 | 121.03207 | 26076 ft | 433 kts | 179° |
| 2026-04-21 11:49 | 13.43676 | 121.03240 | 26511 ft | 435 kts | 178° |
| 2026-04-21 11:49 | 13.40645 | 121.03277 | 26924 ft | 437 kts | 178° |
| 2026-04-21 11:50 | 13.38679 | 121.03300 | 27182 ft | 439 kts | 178° |
| 2026-04-21 11:50 | 13.35348 | 121.03336 | 27604 ft | 441 kts | 178° |
| 2026-04-21 11:50 | 13.32104 | 121.03371 | 27997 ft | 443 kts | 178° |
| 2026-04-21 11:50 | 13.29016 | 121.03402 | 28355 ft | 445 kts | 178° |
| 2026-04-21 11:51 | 13.25906 | 121.03433 | 28726 ft | 446 kts | 178° |
| 2026-04-21 11:51 | 13.22795 | 121.03463 | 29192 ft | 444 kts | 178° |
| 2026-04-21 11:51 | 13.19702 | 121.03492 | 29666 ft | 441 kts | 178° |
| 2026-04-21 11:51 | 13.16675 | 121.03522 | 30099 ft | 440 kts | 178° |
| 2026-04-21 11:52 | 13.14851 | 121.03539 | 30344 ft | 439 kts | 178° |
| 2026-04-21 11:52 | 13.11194 | 121.03575 | 30818 ft | 437 kts | 178° |
| 2026-04-21 11:52 | 13.07551 | 121.03612 | 31199 ft | 438 kts | 179° |
| 2026-04-21 11:52 | 13.04399 | 121.03647 | 31386 ft | 442 kts | 179° |
| 2026-04-21 11:53 | 13.02130 | 121.03673 | 31507 ft | 445 kts | 180° |
| 2026-04-21 11:53 | 12.98420 | 121.03715 | 31786 ft | 447 kts | 180° |
| 2026-04-21 11:53 | 12.95361 | 121.03748 | 32124 ft | 445 kts | 181° |
| 2026-04-21 11:53 | 12.92215 | 121.03776 | 32513 ft | 443 kts | 181° |
| 2026-04-21 11:54 | 12.89140 | 121.03802 | 32789 ft | 443 kts | 181° |
| 2026-04-21 11:54 | 12.86069 | 121.03828 | 32865 ft | 445 kts | 181° |
| 2026-04-21 11:54 | 12.80074 | 121.03884 | 32870 ft | 446 kts | 181° |
| 2026-04-21 11:55 | 12.73828 | 121.03945 | 32872 ft | 446 kts | 181° |
| 2026-04-21 11:55 | 12.67941 | 121.04004 | 32872 ft | 446 kts | 181° |
| 2026-04-21 11:56 | 12.62948 | 121.04054 | 32872 ft | 446 kts | 181° |
| 2026-04-21 11:56 | 12.58593 | 121.04097 | 32872 ft | 446 kts | 181° |
| 2026-04-21 11:57 | 12.51623 | 121.04166 | 32872 ft | 445 kts | 181° |
| 2026-04-21 11:57 | 12.44291 | 121.04288 | 32869 ft | 446 kts | 177° |
| 2026-04-21 11:58 | 12.38278 | 121.05461 | 32872 ft | 448 kts | 163° |
| 2026-04-21 11:58 | 12.32597 | 121.08172 | 32873 ft | 449 kts | 148° |
| 2026-04-21 11:59 | 12.27773 | 121.12116 | 32876 ft | 447 kts | 138° |
| 2026-04-21 11:59 | 12.23232 | 121.16502 | 32873 ft | 444 kts | 137° |
| 2026-04-21 12:00 | 12.18783 | 121.20795 | 32873 ft | 442 kts | 137° |
| 2026-04-21 12:00 | 12.14304 | 121.25092 | 32872 ft | 441 kts | 137° |
| 2026-04-21 12:01 | 12.09825 | 121.29378 | 32872 ft | 441 kts | 137° |
| 2026-04-21 12:01 | 12.05338 | 121.33664 | 32872 ft | 441 kts | 137° |
| 2026-04-21 12:02 | 11.98613 | 121.40083 | 32872 ft | 441 kts | 137° |
| 2026-04-21 12:03 | 11.94150 | 121.44340 | 32872 ft | 441 kts | 137° |
| 2026-04-21 12:03 | 11.89720 | 121.48564 | 32872 ft | 441 kts | 137° |
| 2026-04-21 12:04 | 11.85146 | 121.52923 | 32872 ft | 441 kts | 137° |
| 2026-04-21 12:04 | 11.80644 | 121.57210 | 32800 ft | 442 kts | 137° |
| 2026-04-21 12:04 | 11.78365 | 121.59380 | 32062 ft | 447 kts | 137° |
| 2026-04-21 12:05 | 11.76090 | 121.61546 | 31281 ft | 449 kts | 137° |
| 2026-04-21 12:05 | 11.73808 | 121.63718 | 30535 ft | 451 kts | 137° |
| 2026-04-21 12:05 | 11.71506 | 121.65909 | 29793 ft | 451 kts | 138° |
| 2026-04-21 12:05 | 11.69196 | 121.68106 | 29045 ft | 452 kts | 138° |
| 2026-04-21 12:06 | 11.66954 | 121.70238 | 28310 ft | 452 kts | 138° |
| 2026-04-21 12:06 | 11.64580 | 121.72495 | 27740 ft | 448 kts | 138° |
| 2026-04-21 12:06 | 11.62326 | 121.74635 | 27255 ft | 442 kts | 137° |
| 2026-04-21 12:06 | 11.60068 | 121.76773 | 26800 ft | 436 kts | 137° |
| 2026-04-21 12:07 | 11.57919 | 121.78815 | 26377 ft | 430 kts | 137° |
| 2026-04-21 12:07 | 11.55752 | 121.80875 | 25934 ft | 424 kts | 137° |
| 2026-04-21 12:07 | 11.53601 | 121.82919 | 25481 ft | 419 kts | 137° |
| 2026-04-21 12:07 | 11.51473 | 121.84940 | 25022 ft | 415 kts | 137° |
| 2026-04-21 12:08 | 11.49375 | 121.86932 | 24562 ft | 411 kts | 137° |
| 2026-04-21 12:08 | 11.47275 | 121.88924 | 24099 ft | 407 kts | 137° |
| 2026-04-21 12:08 | 11.45238 | 121.90857 | 23642 ft | 404 kts | 137° |
| 2026-04-21 12:08 | 11.43189 | 121.92799 | 23175 ft | 401 kts | 137° |
| 2026-04-21 12:09 | 11.41188 | 121.94697 | 22718 ft | 397 kts | 137° |
| 2026-04-21 12:09 | 11.39199 | 121.96584 | 22258 ft | 394 kts | 137° |
| 2026-04-21 12:09 | 11.37210 | 121.98470 | 21800 ft | 391 kts | 137° |
| 2026-04-21 12:09 | 11.35238 | 122.00339 | 21339 ft | 388 kts | 137° |
| 2026-04-21 12:10 | 11.33371 | 122.02110 | 20901 ft | 386 kts | 137° |
| 2026-04-21 12:10 | 11.31321 | 122.04052 | 20418 ft | 383 kts | 137° |
| 2026-04-21 12:10 | 11.29420 | 122.05854 | 19970 ft | 380 kts | 137° |
| 2026-04-21 12:10 | 11.27495 | 122.07678 | 19509 ft | 377 kts | 137° |
| 2026-04-21 12:11 | 11.25577 | 122.09495 | 19054 ft | 375 kts | 137° |
| 2026-04-21 12:11 | 11.23675 | 122.11297 | 18598 ft | 372 kts | 137° |
| 2026-04-21 12:11 | 11.21781 | 122.13090 | 18145 ft | 370 kts | 137° |
| 2026-04-21 12:11 | 11.19900 | 122.14871 | 17691 ft | 367 kts | 137° |
| 2026-04-21 12:12 | 11.18058 | 122.16615 | 17246 ft | 365 kts | 137° |
| 2026-04-21 12:12 | 11.16183 | 122.18390 | 16789 ft | 363 kts | 137° |
| 2026-04-21 12:12 | 11.14343 | 122.20132 | 16340 ft | 360 kts | 137° |
| 2026-04-21 12:12 | 11.12507 | 122.21869 | 16025 ft | 353 kts | 137° |
| 2026-04-21 12:13 | 11.10750 | 122.23531 | 15897 ft | 340 kts | 137° |
| 2026-04-21 12:13 | 11.09043 | 122.25145 | 15758 ft | 328 kts | 137° |
| 2026-04-21 12:13 | 11.07398 | 122.26714 | 15622 ft | 316 kts | 135° |
| 2026-04-21 12:13 | 11.05889 | 122.28326 | 15485 ft | 306 kts | 131° |
| 2026-04-21 12:14 | 11.04568 | 122.29966 | 15114 ft | 305 kts | 127° |
| 2026-04-21 12:14 | 11.03485 | 122.31411 | 14798 ft | 304 kts | 127° |
| 2026-04-21 12:14 | 11.02515 | 122.32719 | 14523 ft | 303 kts | 127° |
| 2026-04-21 12:14 | 11.01642 | 122.33901 | 14268 ft | 303 kts | 128° |
| 2026-04-21 12:15 | 11.00506 | 122.35438 | 13903 ft | 304 kts | 129° |
| 2026-04-21 12:15 | 10.99223 | 122.37157 | 13438 ft | 307 kts | 129° |
| 2026-04-21 12:15 | 10.97919 | 122.38902 | 13017 ft | 308 kts | 129° |
| 2026-04-21 12:15 | 10.96614 | 122.40646 | 12624 ft | 307 kts | 129° |
| 2026-04-21 12:16 | 10.95325 | 122.42371 | 12250 ft | 306 kts | 129° |
| 2026-04-21 12:16 | 10.94036 | 122.44095 | 11882 ft | 305 kts | 129° |
| 2026-04-21 12:16 | 10.92763 | 122.45799 | 11529 ft | 303 kts | 129° |
| 2026-04-21 12:16 | 10.91479 | 122.47517 | 11185 ft | 301 kts | 129° |
| 2026-04-21 12:17 | 10.90245 | 122.49170 | 10854 ft | 298 kts | 129° |
| 2026-04-21 12:17 | 10.89013 | 122.50818 | 10530 ft | 296 kts | 129° |
| 2026-04-21 12:17 | 10.87774 | 122.52476 | 10206 ft | 294 kts | 129° |
| 2026-04-21 12:17 | 10.86507 | 122.54169 | 9874 ft | 291 kts | 129° |
| 2026-04-21 12:18 | 10.85218 | 122.55891 | 9536 ft | 288 kts | 129° |
| 2026-04-21 12:18 | 10.83979 | 122.57547 | 9208 ft | 286 kts | 129° |
| 2026-04-21 12:18 | 10.82788 | 122.59139 | 8891 ft | 284 kts | 129° |
| 2026-04-21 12:18 | 10.81591 | 122.60738 | 8570 ft | 281 kts | 129° |
| 2026-04-21 12:19 | 10.80398 | 122.62333 | 8247 ft | 279 kts | 129° |
| 2026-04-21 12:19 | 10.79218 | 122.63910 | 7926 ft | 277 kts | 129° |
| 2026-04-21 12:19 | 10.78053 | 122.65466 | 7607 ft | 275 kts | 129° |
| 2026-04-21 12:19 | 10.76916 | 122.66985 | 7291 ft | 273 kts | 129° |
| 2026-04-21 12:20 | 10.75750 | 122.68542 | 6969 ft | 271 kts | 129° |
| 2026-04-21 12:20 | 10.74606 | 122.70070 | 6652 ft | 269 kts | 129° |
| 2026-04-21 12:20 | 10.73481 | 122.71572 | 6337 ft | 268 kts | 128° |
| 2026-04-21 12:20 | 10.72354 | 122.73077 | 6020 ft | 266 kts | 128° |
| 2026-04-21 12:21 | 10.71244 | 122.74559 | 5706 ft | 264 kts | 128° |
| 2026-04-21 12:21 | 10.70124 | 122.76054 | 5389 ft | 263 kts | 128° |
| 2026-04-21 12:21 | 10.69017 | 122.77531 | 5077 ft | 261 kts | 128° |
| 2026-04-21 12:21 | 10.67917 | 122.78999 | 4766 ft | 260 kts | 128° |
| 2026-04-21 12:22 | 10.66814 | 122.80470 | 4453 ft | 258 kts | 127° |
| 2026-04-21 12:22 | 10.65794 | 122.81964 | 4143 ft | 257 kts | 123° |
| 2026-04-21 12:22 | 10.64882 | 122.83521 | 3837 ft | 255 kts | 121° |
| 2026-04-21 12:22 | 10.63998 | 122.85077 | 3533 ft | 254 kts | 120° |
| 2026-04-21 12:23 | 10.63113 | 122.86620 | 3334 ft | 247 kts | 118° |
| 2026-04-21 12:23 | 10.62270 | 122.88104 | 3318 ft | 232 kts | 118° |
| 2026-04-21 12:23 | 10.61487 | 122.89483 | 3288 ft | 218 kts | 117° |
| 2026-04-21 12:23 | 10.60943 | 122.90860 | 3198 ft | 209 kts | 89° |
| 2026-04-21 12:24 | 10.61307 | 122.92205 | 3216 ft | 188 kts | 53° |
| 2026-04-21 12:24 | 10.62224 | 122.93017 | 3087 ft | 165 kts | 30° |
| 2026-04-21 12:24 | 10.63181 | 122.93562 | 2951 ft | 148 kts | 28° |
| 2026-04-21 12:24 | 10.64057 | 122.94044 | 2837 ft | 139 kts | 28° |
| 2026-04-21 12:25 | 10.64905 | 122.94518 | 2751 ft | 139 kts | 29° |
| 2026-04-21 12:25 | 10.65765 | 122.95007 | 2518 ft | 138 kts | 30° |
| 2026-04-21 12:25 | 10.66608 | 122.95492 | 2321 ft | 138 kts | 30° |
| 2026-04-21 12:25 | 10.67436 | 122.95971 | 2136 ft | 138 kts | 30° |
| 2026-04-21 12:26 | 10.68270 | 122.96455 | 1951 ft | 138 kts | 30° |
| 2026-04-21 12:26 | 10.69108 | 122.96943 | 1769 ft | 138 kts | 31° |
| 2026-04-21 12:26 | 10.69943 | 122.97430 | 1583 ft | 138 kts | 31° |
| 2026-04-21 12:26 | 10.70778 | 122.97916 | 1399 ft | 138 kts | 31° |
| 2026-04-21 12:27 | 10.71616 | 122.98405 | 1215 ft | 138 kts | 31° |
| 2026-04-21 12:27 | 10.72447 | 122.98891 | 1032 ft | 138 kts | 31° |
| 2026-04-21 12:27 | 10.73286 | 122.99389 | 843 ft | 138 kts | 31° |
| 2026-04-21 12:27 | 10.74118 | 122.99869 | 658 ft | 138 kts | 31° |
| 2026-04-21 12:28 | 10.74943 | 123.00343 | 466 ft | 137 kts | 31° |
| 2026-04-21 12:28 | 10.75785 | 123.00818 | 299 ft | 137 kts | 31° |
| 2026-04-21 12:28 | 10.76604 | 123.01292 | 136 ft | 137 kts | 31° |
| 2026-04-21 12:28 | 10.77407 | 123.01757 | 31 ft | 111 kts | 32° |
| 2026-04-21 12:29 | 10.77816 | 123.02004 | 31 ft | 38 kts | 30° |
| 2026-04-21 12:29 | 10.77964 | 123.02093 | 31 ft | 10 kts | 27° |
| 2026-04-21 12:29 | 10.78016 | 123.02119 | 31 ft | 5 kts | 17° |
| 2026-04-21 12:29 | 10.78055 | 123.02123 | 31 ft | 5 kts | 15° |
| 2026-04-21 12:30 | 10.78060 | 123.02142 | 31 ft | 3 kts | 144° |
| 2026-04-21 12:30 | 10.78033 | 123.02130 | 31 ft | 5 kts | 218° |
| 2026-04-21 12:30 | 10.77998 | 123.02108 | 31 ft | 7 kts | 208° |
| 2026-04-21 12:30 | 10.77957 | 123.02085 | 31 ft | 9 kts | 209° |
| 2026-04-21 12:31 | 10.77889 | 123.02046 | 31 ft | 12 kts | 209° |
| 2026-04-21 12:31 | 10.77807 | 123.01998 | 31 ft | 14 kts | 210° |
| 2026-04-21 12:31 | 10.77724 | 123.01949 | 31 ft | 9 kts | 210° |
| 2026-04-21 12:31 | 10.77682 | 123.01911 | 31 ft | 8 kts | 246° |
| 2026-04-21 12:32 | 10.77693 | 123.01852 | 31 ft | 9 kts | 298° |
| 2026-04-21 12:32 | 10.77725 | 123.01791 | 31 ft | 10 kts | 298° |
| 2026-04-21 12:32 | 10.77748 | 123.01744 | 31 ft | 7 kts | 282° |
| 2026-04-21 12:32 | 10.77730 | 123.01695 | 31 ft | 8 kts | 224° |
| 2026-04-21 12:33 | 10.77680 | 123.01665 | 31 ft | 9 kts | 208° |
| 2026-04-21 12:33 | 10.77640 | 123.01641 | 31 ft | 7 kts | 211° |
| 2026-04-21 12:33 | 10.77610 | 123.01622 | 31 ft | 3 kts | 213° |
| 2026-04-21 12:33 | 10.77605 | 123.01605 | 31 ft | 4 kts | 287° |
| 2026-04-21 12:34 | 10.77617 | 123.01582 | 31 ft | 4 kts | 300° |
| 2026-04-21 12:34 | 10.77628 | 123.01562 | 31 ft | 2 kts | 301° |
| 2026-04-21 12:34 | 10.77633 | 123.01555 | 31 ft | 0 kts | 300° |
| 2026-04-21 12:34 | 10.77633 | 123.01554 | 31 ft | 0 kts | 300° |